Time;durP1;ratioP1;P1;durP2;ratioP2;P2;SDS_P1;SDS_P2;PMS_P1;PMS_P2;Temp;Humidity;BMP_temperature;BMP_pressure;BME280_temperature;BME280_humidity;BME280_pressure;Samples;Min_cycle;Max_cycle;Signal;HPM_P1;HPM_P2
2021/10/19 00:00:09;;;;;;;20.33;7.25;;;20.50;51.30;;;;;;5133886;27;20466;-58
2021/10/19 00:02:35;;;;;;;19.77;7.55;;;20.40;51.30;;;;;;5133681;27;20096;-57
2021/10/19 00:05:04;;;;;;;21.30;7.70;;;20.40;51.30;;;;;;5133763;28;20038;-57
2021/10/19 00:07:30;;;;;;;23.70;7.75;;;20.40;51.30;;;;;;5133784;28;20034;-57
2021/10/19 00:09:55;;;;;;;19.95;7.88;;;20.40;51.30;;;;;;5115456;28;20019;-58
2021/10/19 00:12:21;;;;;;;19.30;7.40;;;20.50;51.20;;;;;;5133792;28;20031;-57
2021/10/19 00:14:47;;;;;;;18.42;8.13;;;20.50;51.20;;;;;;5133751;28;20370;-57
2021/10/19 00:17:12;;;;;;;18.88;7.18;;;20.50;51.30;;;;;;5133715;28;20102;-57
2021/10/19 00:19:39;;;;;;;18.88;7.18;;;20.40;51.30;;;;;;5133718;28;20035;-55
2021/10/19 00:22:05;;;;;;;22.80;7.85;;;20.50;51.30;;;;;;5133808;28;20046;-58
2021/10/19 00:24:31;;;;;;;19.50;7.18;;;20.50;51.30;;;;;;5133666;28;20028;-56
2021/10/19 00:26:56;;;;;;;18.00;6.85;;;20.40;51.20;;;;;;5133984;28;20055;-55
2021/10/19 00:29:22;;;;;;;19.35;7.60;;;20.50;51.20;;;;;;5133738;28;20023;-54
2021/10/19 00:31:48;;;;;;;19.58;7.82;;;20.50;51.30;;;;;;5115021;28;20033;-54
2021/10/19 00:34:13;;;;;;;18.75;7.72;;;20.50;51.30;;;;;;5133776;27;20081;-58
2021/10/19 00:36:39;;;;;;;23.40;7.80;;;20.50;51.30;;;;;;5137225;27;20435;-57
2021/10/19 00:39:05;;;;;;;20.70;7.95;;;20.50;51.30;;;;;;5137594;27;20035;-56
2021/10/19 00:41:30;;;;;;;19.17;7.28;;;20.50;51.30;;;;;;5137583;27;20058;-58
2021/10/19 00:43:56;;;;;;;21.17;7.68;;;20.50;51.30;;;;;;5137482;27;20454;-58
2021/10/19 00:46:21;;;;;;;19.88;7.40;;;20.50;51.30;;;;;;5137734;27;20504;-56
2021/10/19 00:48:47;;;;;;;18.35;7.18;;;20.50;51.30;;;;;;5119078;27;20034;-57
2021/10/19 00:51:15;;;;;;;18.60;6.78;;;20.50;51.30;;;;;;5137373;27;20493;-56
2021/10/19 00:53:41;;;;;;;19.30;7.40;;;20.50;51.30;;;;;;5137401;27;20106;-54
2021/10/19 00:56:08;;;;;;;17.25;6.93;;;20.50;51.30;;;;;;5137230;27;20058;-57
2021/10/19 00:58:36;;;;;;;17.38;7.25;;;20.40;51.30;;;;;;5137156;27;20088;-56
2021/10/19 01:01:01;;;;;;;14.95;6.53;;;20.50;51.30;;;;;;5137046;27;20039;-55
2021/10/19 01:03:27;;;;;;;19.02;7.38;;;20.50;51.30;;;;;;5137134;27;20035;-55
2021/10/19 01:05:53;;;;;;;18.52;6.90;;;20.40;51.30;;;;;;5137220;27;20015;-55
2021/10/19 01:08:18;;;;;;;15.02;6.20;;;20.40;51.30;;;;;;5137202;27;20106;-57
2021/10/19 01:10:44;;;;;;;18.08;7.05;;;20.40;51.30;;;;;;5137046;27;20059;-58
2021/10/19 01:13:10;;;;;;;17.55;6.85;;;20.40;51.30;;;;;;5136959;27;20022;-55
2021/10/19 01:15:36;;;;;;;18.08;7.95;;;20.40;51.40;;;;;;5136809;27;20034;-59
2021/10/19 01:18:02;;;;;;;19.02;7.50;;;20.40;51.30;;;;;;5136704;27;20019;-56
2021/10/19 01:20:30;;;;;;;18.20;7.05;;;20.40;51.40;;;;;;5118395;27;20023;-56
2021/10/19 01:22:57;;;;;;;20.17;7.75;;;20.40;51.30;;;;;;5136737;27;20475;-57
2021/10/19 01:25:25;;;;;;;17.60;7.22;;;20.40;51.40;;;;;;5136689;27;20459;-54
2021/10/19 01:28:05;;;;;;;18.90;7.72;;;20.40;51.40;;;;;;5136822;27;20027;-56
2021/10/19 01:30:31;;;;;;;17.35;7.35;;;20.40;51.40;;;;;;5136751;27;20026;-55
2021/10/19 01:32:57;;;;;;;18.67;7.70;;;20.40;51.40;;;;;;5136460;27;20117;-55
2021/10/19 01:35:33;;;;;;;19.73;7.55;;;20.40;51.40;;;;;;5136629;27;20019;-56
2021/10/19 01:37:58;;;;;;;19.02;7.85;;;20.40;51.40;;;;;;5136455;27;20023;-56
2021/10/19 01:40:24;;;;;;;17.35;7.38;;;20.40;51.40;;;;;;5136315;27;20501;-55
2021/10/19 01:42:49;;;;;;;19.52;7.25;;;20.40;51.40;;;;;;5136261;27;20039;-55
2021/10/19 01:45:16;;;;;;;18.10;7.68;;;20.40;51.40;;;;;;5136319;27;20018;-53
2021/10/19 01:47:42;;;;;;;15.38;6.55;;;20.40;51.40;;;;;;5135138;27;20023;-55
2021/10/19 01:50:09;;;;;;;18.25;7.38;;;20.40;51.40;;;;;;5136314;27;20416;-57
2021/10/19 01:52:35;;;;;;;20.23;7.32;;;20.40;51.40;;;;;;5136200;27;20019;-55
2021/10/19 01:55:04;;;;;;;17.58;7.53;;;20.30;51.40;;;;;;5136129;27;20039;-54
2021/10/19 01:57:30;;;;;;;16.85;6.68;;;20.40;51.40;;;;;;5136022;27;20023;-56
2021/10/19 01:59:56;;;;;;;17.48;6.93;;;20.40;51.40;;;;;;5136047;27;20110;-57
2021/10/19 02:02:21;;;;;;;17.95;7.28;;;20.40;51.40;;;;;;5135876;27;20115;-56
2021/10/19 02:04:47;;;;;;;16.45;6.90;;;20.40;51.40;;;;;;5135921;27;20027;-55
2021/10/19 02:07:13;;;;;;;15.65;6.82;;;20.40;51.40;;;;;;5135916;27;20027;-55
2021/10/19 02:09:38;;;;;;;17.85;7.10;;;20.40;51.40;;;;;;5135762;27;20058;-57
2021/10/19 02:12:04;;;;;;;15.05;6.15;;;20.40;51.40;;;;;;5136027;27;20023;-56
2021/10/19 02:14:30;;;;;;;18.42;7.10;;;20.40;51.40;;;;;;5135725;27;20374;-56
2021/10/19 02:16:56;;;;;;;15.55;6.53;;;20.40;51.40;;;;;;5135702;27;20034;-59
2021/10/19 02:19:25;;;;;;;16.25;7.05;;;20.40;51.40;;;;;;5135686;27;20467;-55
2021/10/19 02:21:54;;;;;;;16.35;6.28;;;20.40;51.40;;;;;;5135517;27;20046;-53
2021/10/19 02:24:20;;;;;;;13.90;6.63;;;20.40;51.40;;;;;;5135516;27;20031;-54
2021/10/19 02:26:46;;;;;;;16.25;7.10;;;20.40;51.40;;;;;;5135695;27;20027;-55
2021/10/19 02:29:12;;;;;;;17.27;6.90;;;20.40;51.40;;;;;;5135358;27;20025;-56
2021/10/19 02:31:38;;;;;;;13.95;6.75;;;20.30;51.40;;;;;;5135390;27;20027;-56
2021/10/19 02:34:04;;;;;;;15.77;7.15;;;20.40;51.40;;;;;;5135510;27;20034;-56
2021/10/19 02:36:30;;;;;;;13.45;6.13;;;20.30;51.40;;;;;;5135320;27;20019;-56
2021/10/19 02:38:56;;;;;;;16.23;6.30;;;20.40;51.40;;;;;;5116554;27;20034;-57
2021/10/19 02:41:21;;;;;;;16.42;6.88;;;20.40;51.50;;;;;;5135397;27;20114;-57
2021/10/19 02:43:47;;;;;;;16.63;6.85;;;20.40;51.50;;;;;;5135309;27;20030;-55
2021/10/19 02:46:13;;;;;;;16.17;6.30;;;20.40;51.50;;;;;;5135135;27;20074;-55
2021/10/19 02:48:39;;;;;;;16.20;6.60;;;20.30;51.50;;;;;;5135152;27;20023;-54
2021/10/19 02:51:04;;;;;;;15.95;6.75;;;20.40;51.50;;;;;;5135207;27;20431;-56
2021/10/19 02:53:30;;;;;;;16.88;6.97;;;20.40;51.50;;;;;;5134912;27;20031;-58
2021/10/19 02:55:55;;;;;;;14.52;6.68;;;20.30;51.50;;;;;;5134908;27;20065;-56
2021/10/19 02:58:21;;;;;;;14.98;6.10;;;20.30;51.50;;;;;;5134772;27;20074;-57
2021/10/19 03:00:47;;;;;;;14.98;6.28;;;20.30;51.50;;;;;;5134925;27;20023;-56
2021/10/19 03:03:12;;;;;;;15.35;7.07;;;20.30;51.50;;;;;;5134996;27;20031;-56
2021/10/19 03:05:38;;;;;;;16.15;6.40;;;20.30;51.50;;;;;;5134706;27;20375;-55
2021/10/19 03:08:04;;;;;;;15.82;7.13;;;20.30;51.50;;;;;;5134634;27;20023;-55
2021/10/19 03:10:30;;;;;;;13.63;6.20;;;20.30;51.50;;;;;;5134644;27;20058;-56
2021/10/19 03:12:55;;;;;;;14.20;6.97;;;20.30;51.50;;;;;;5134795;27;20023;-56
2021/10/19 03:15:24;;;;;;;16.42;6.53;;;20.40;51.50;;;;;;5134518;27;20034;-55
2021/10/19 03:17:50;;;;;;;16.50;7.15;;;20.30;51.50;;;;;;5134321;27;20023;-56
2021/10/19 03:20:15;;;;;;;13.52;6.70;;;20.30;51.50;;;;;;5134349;27;20026;-57
2021/10/19 03:22:41;;;;;;;14.32;6.15;;;20.30;51.50;;;;;;5134270;27;20486;-54
2021/10/19 03:25:07;;;;;;;15.13;6.25;;;20.30;51.50;;;;;;5134403;27;20019;-56
2021/10/19 03:27:32;;;;;;;17.83;6.93;;;20.30;51.60;;;;;;5134408;27;20023;-55
2021/10/19 03:29:58;;;;;;;14.30;6.38;;;20.30;51.50;;;;;;5134588;27;20419;-54
2021/10/19 03:32:24;;;;;;;17.88;7.80;;;20.30;51.50;;;;;;5134258;27;20050;-54
2021/10/19 03:34:49;;;;;;;16.15;7.07;;;20.30;51.50;;;;;;5134223;27;20046;-55
2021/10/19 03:37:15;;;;;;;13.38;6.47;;;20.30;51.60;;;;;;5134415;27;20037;-55
2021/10/19 03:39:40;;;;;;;14.77;6.90;;;20.30;51.50;;;;;;5133933;27;20096;-54
2021/10/19 03:42:06;;;;;;;16.20;6.53;;;20.30;51.50;;;;;;5115575;27;20118;-55
2021/10/19 03:44:32;;;;;;;15.77;6.22;;;20.30;51.60;;;;;;5134135;27;20388;-57
2021/10/19 03:46:57;;;;;;;14.75;5.85;;;20.30;51.60;;;;;;5133992;27;20031;-57
2021/10/19 03:49:23;;;;;;;15.65;6.60;;;20.30;51.60;;;;;;5134067;27;20015;-55
2021/10/19 03:51:48;;;;;;;14.52;6.15;;;20.30;51.60;;;;;;5133951;27;20032;-57
2021/10/19 03:54:14;;;;;;;12.88;5.95;;;20.30;51.60;;;;;;5134146;27;20027;-55
2021/10/19 03:56:40;;;;;;;14.85;6.32;;;20.30;51.60;;;;;;5133865;27;20026;-56
2021/10/19 03:59:05;;;;;;;13.70;5.88;;;20.30;51.60;;;;;;5133880;27;20027;-54
2021/10/19 04:01:31;;;;;;;13.23;6.03;;;20.30;51.60;;;;;;5133796;27;20039;-56
2021/10/19 04:03:56;;;;;;;13.88;5.97;;;20.30;51.60;;;;;;5115423;28;20027;-56
2021/10/19 04:06:22;;;;;;;12.40;5.47;;;20.30;51.60;;;;;;5115395;28;20518;-55
2021/10/19 04:08:47;;;;;;;13.35;5.85;;;20.30;51.60;;;;;;5133813;28;20019;-55
2021/10/19 04:11:13;;;;;;;15.50;6.57;;;20.30;51.60;;;;;;5121392;27;20412;-56
2021/10/19 04:13:38;;;;;;;15.10;6.07;;;20.30;51.60;;;;;;5140596;27;20040;-55
2021/10/19 04:16:04;;;;;;;14.70;5.68;;;20.30;51.60;;;;;;5140660;27;20072;-56
2021/10/19 04:18:30;;;;;;;15.35;5.95;;;20.30;51.60;;;;;;5140566;27;20027;-54
2021/10/19 04:20:55;;;;;;;12.82;5.85;;;20.30;51.60;;;;;;5140516;27;20046;-52
2021/10/19 04:23:22;;;;;;;13.90;5.68;;;20.30;51.60;;;;;;5140435;27;20038;-51
2021/10/19 04:25:47;;;;;;;15.27;6.80;;;20.30;51.60;;;;;;5140502;27;20023;-55
2021/10/19 04:28:13;;;;;;;13.38;6.60;;;20.40;51.60;;;;;;5140618;27;20023;-56
2021/10/19 04:30:38;;;;;;;12.68;5.85;;;20.40;51.60;;;;;;5140488;27;20031;-57
2021/10/19 04:33:04;;;;;;;13.25;6.13;;;20.40;51.60;;;;;;5140428;27;20046;-59
2021/10/19 04:35:30;;;;;;;12.75;6.18;;;20.40;51.60;;;;;;5140618;27;20034;-56
2021/10/19 04:37:56;;;;;;;16.27;6.40;;;20.40;51.60;;;;;;5121931;27;20463;-56
2021/10/19 04:40:21;;;;;;;13.05;5.72;;;20.40;51.60;;;;;;5140281;27;20100;-57
2021/10/19 04:42:47;;;;;;;13.88;5.93;;;20.40;51.60;;;;;;5140326;27;20038;-58
2021/10/19 04:45:13;;;;;;;13.55;5.28;;;20.40;51.60;;;;;;5140606;27;20015;-56
2021/10/19 04:47:38;;;;;;;11.43;5.85;;;20.50;51.60;;;;;;5140295;27;20106;-59
2021/10/19 04:50:05;;;;;;;10.18;4.72;;;20.40;51.60;;;;;;5140275;27;20020;-57
2021/10/19 04:52:31;;;;;;;11.70;5.32;;;20.50;51.60;;;;;;5140274;27;20031;-58
2021/10/19 04:54:56;;;;;;;11.05;5.28;;;20.40;51.60;;;;;;5140384;27;20076;-58
2021/10/19 04:57:22;;;;;;;13.32;6.18;;;20.50;51.60;;;;;;5140514;27;20026;-56
2021/10/19 04:59:47;;;;;;;13.52;5.97;;;20.50;51.60;;;;;;5140224;27;20027;-57
2021/10/19 05:02:13;;;;;;;12.00;5.60;;;20.50;51.60;;;;;;5140127;27;20502;-56
2021/10/19 05:04:39;;;;;;;12.00;5.22;;;20.50;51.60;;;;;;5140320;27;20024;-57
2021/10/19 05:07:04;;;;;;;11.32;5.22;;;20.50;51.60;;;;;;5140349;27;20497;-56
2021/10/19 05:09:30;;;;;;;13.05;5.38;;;20.50;51.60;;;;;;5121764;27;20106;-56
2021/10/19 05:11:55;;;;;;;11.07;5.47;;;20.50;51.60;;;;;;5140324;27;20015;-57
2021/10/19 05:14:21;;;;;;;11.70;5.30;;;20.50;51.60;;;;;;5140039;27;20482;-56
2021/10/19 05:16:46;;;;;;;11.75;5.55;;;20.50;51.60;;;;;;5139966;27;20027;-55
2021/10/19 05:19:12;;;;;;;12.27;5.28;;;20.50;51.60;;;;;;5139892;27;20030;-55
2021/10/19 05:21:37;;;;;;;13.15;5.80;;;20.50;51.60;;;;;;5138254;27;20041;-55
2021/10/19 05:24:03;;;;;;;11.80;6.15;;;20.50;51.70;;;;;;5136993;27;20102;-56
2021/10/19 05:26:29;;;;;;;13.13;5.47;;;20.50;51.70;;;;;;5118220;27;20019;-56
2021/10/19 05:28:54;;;;;;;11.77;5.22;;;20.50;51.70;;;;;;5136648;27;20400;-55
2021/10/19 05:31:20;;;;;;;11.23;5.05;;;20.50;51.70;;;;;;5136620;27;20030;-56
2021/10/19 05:33:45;;;;;;;14.82;5.75;;;20.50;51.70;;;;;;5136535;27;20046;-56
2021/10/19 05:36:11;;;;;;;11.60;5.20;;;20.50;51.70;;;;;;5136596;27;20099;-57
2021/10/19 05:38:36;;;;;;;11.20;5.25;;;20.50;51.70;;;;;;5136442;27;20382;-58
2021/10/19 05:41:02;;;;;;;11.73;5.35;;;20.50;51.70;;;;;;5136199;27;20447;-58
2021/10/19 05:43:28;;;;;;;13.43;5.25;;;20.50;51.70;;;;;;5136425;27;20058;-55
2021/10/19 05:45:54;;;;;;;12.45;5.05;;;20.50;51.70;;;;;;5136598;27;20418;-59
2021/10/19 05:48:19;;;;;;;12.70;5.35;;;20.50;51.70;;;;;;5136226;27;20485;-57
2021/10/19 05:50:45;;;;;;;10.80;4.95;;;20.50;51.70;;;;;;5136267;27;20023;-58
2021/10/19 05:53:10;;;;;;;10.82;4.88;;;20.50;51.70;;;;;;5117812;27;20046;-55
2021/10/19 05:55:37;;;;;;;11.57;5.35;;;20.50;51.80;;;;;;5136173;27;20375;-57
2021/10/19 05:58:04;;;;;;;11.30;5.10;;;20.50;51.70;;;;;;5136188;27;20031;-58
2021/10/19 06:00:30;;;;;;;11.30;5.22;;;20.50;51.70;;;;;;5136083;27;20023;-58
2021/10/19 06:02:56;;;;;;;10.05;4.50;;;20.50;51.70;;;;;;5135946;27;20034;-56
2021/10/19 06:05:22;;;;;;;10.95;4.95;;;20.50;51.70;;;;;;5135992;27;20019;-56
2021/10/19 06:07:48;;;;;;;13.35;4.78;;;20.50;51.70;;;;;;5136136;27;20106;-58
2021/10/19 06:10:19;;;;;;;11.93;5.13;;;20.50;51.80;;;;;;5135809;27;20369;-56
2021/10/19 06:12:44;;;;;;;13.82;5.63;;;20.50;51.70;;;;;;5136063;27;20386;-58
2021/10/19 06:15:10;;;;;;;10.90;5.15;;;20.50;51.80;;;;;;5135809;27;20031;-58
2021/10/19 06:17:36;;;;;;;12.15;5.43;;;20.50;51.80;;;;;;5135847;27;20039;-59
2021/10/19 06:20:02;;;;;;;10.35;5.00;;;20.60;51.80;;;;;;5135691;27;20023;-54
2021/10/19 06:22:27;;;;;;;9.45;4.63;;;20.60;51.80;;;;;;5135490;27;20027;-56
2021/10/19 06:24:53;;;;;;;9.80;4.88;;;20.60;51.80;;;;;;5135625;27;20015;-56
2021/10/19 06:27:18;;;;;;;11.52;5.60;;;20.50;51.80;;;;;;5135494;27;20023;-55
2021/10/19 06:29:44;;;;;;;9.85;4.82;;;20.50;51.80;;;;;;5135455;27;20023;-57
2021/10/19 06:32:09;;;;;;;11.02;5.13;;;20.60;51.80;;;;;;5135160;27;20095;-55
2021/10/19 06:34:35;;;;;;;11.35;5.15;;;20.50;51.90;;;;;;5134998;27;20019;-58
2021/10/19 06:37:00;;;;;;;11.65;4.80;;;20.60;51.80;;;;;;5135321;27;20031;-58
2021/10/19 06:39:26;;;;;;;10.00;4.65;;;20.60;51.80;;;;;;5135093;27;20128;-58
2021/10/19 06:41:51;;;;;;;10.55;4.60;;;20.60;51.80;;;;;;5135077;27;20027;-56
2021/10/19 06:44:17;;;;;;;8.63;4.57;;;20.60;51.90;;;;;;5135118;27;20491;-53
2021/10/19 06:46:42;;;;;;;10.77;4.95;;;20.50;51.80;;;;;;5135050;27;20019;-53
2021/10/19 06:49:08;;;;;;;9.50;4.50;;;20.60;51.90;;;;;;5135270;27;20030;-56
2021/10/19 06:51:34;;;;;;;10.90;4.78;;;20.60;51.90;;;;;;5135108;27;20028;-56
2021/10/19 06:53:59;;;;;;;8.52;4.20;;;20.60;51.90;;;;;;5134956;27;20026;-56
2021/10/19 06:56:25;;;;;;;10.95;4.70;;;20.60;51.90;;;;;;5134997;27;20086;-58
2021/10/19 06:58:50;;;;;;;10.48;4.80;;;20.60;51.90;;;;;;5135008;27;20508;-57
2021/10/19 07:01:17;;;;;;;10.90;5.10;;;20.60;51.90;;;;;;5134668;27;20495;-59
2021/10/19 07:03:42;;;;;;;12.35;4.82;;;20.60;51.90;;;;;;5134792;27;20026;-56
2021/10/19 07:06:08;;;;;;;10.68;5.18;;;20.60;51.90;;;;;;5134796;27;20378;-55
2021/10/19 07:08:34;;;;;;;9.75;4.22;;;20.60;51.90;;;;;;5116682;27;20045;-52
2021/10/19 07:11:00;;;;;;;9.68;4.63;;;20.60;51.90;;;;;;5116457;27;20023;-54
2021/10/19 07:13:26;;;;;;;10.50;4.70;;;20.60;51.90;;;;;;5134578;27;20023;-53
2021/10/19 07:15:54;;;;;;;9.88;4.47;;;20.50;51.90;;;;;;5134453;27;20087;-55
2021/10/19 07:18:20;;;;;;;11.05;4.55;;;20.60;51.90;;;;;;5134535;27;20053;-53
2021/10/19 07:20:45;;;;;;;9.80;4.35;;;20.60;51.90;;;;;;5134690;27;20111;-55
2021/10/19 07:23:11;;;;;;;10.10;4.50;;;20.60;52.00;;;;;;5134118;27;20219;-58
2021/10/19 07:25:38;;;;;;;9.27;4.32;;;20.60;51.90;;;;;;5134124;27;20026;-56
2021/10/19 07:28:04;;;;;;;9.85;4.50;;;20.60;52.00;;;;;;5134257;27;20019;-56
2021/10/19 07:30:30;;;;;;;10.13;4.80;;;20.60;52.00;;;;;;5134089;27;20031;-57
2021/10/19 07:32:55;;;;;;;8.82;4.20;;;20.60;52.00;;;;;;5115719;27;20145;-57
2021/10/19 07:35:22;;;;;;;10.20;4.68;;;20.60;52.00;;;;;;5134262;27;20092;-56
2021/10/19 07:37:48;;;;;;;9.50;3.95;;;20.60;52.00;;;;;;5133985;27;20490;-57
2021/10/19 07:40:15;;;;;;;11.00;4.60;;;20.60;52.00;;;;;;5133826;27;20404;-56
2021/10/19 07:42:42;;;;;;;9.32;4.20;;;20.60;52.00;;;;;;5133863;27;20114;-59
2021/10/19 07:45:09;;;;;;;9.13;4.15;;;20.60;52.00;;;;;;5114539;27;20019;-56
2021/10/19 07:47:46;;;;;;;10.85;4.32;;;20.60;52.00;;;;;;5133951;27;20028;-58
2021/10/19 07:50:17;;;;;;;9.77;4.55;;;20.60;52.00;;;;;;5133890;27;20031;-57
2021/10/19 07:52:43;;;;;;;9.48;4.32;;;20.60;52.00;;;;;;5115224;27;20382;-58
2021/10/19 07:55:10;;;;;;;8.93;4.10;;;20.60;52.00;;;;;;5115186;27;20023;-58
2021/10/19 07:57:47;;;;;;;10.07;4.38;;;20.60;52.00;;;;;;5133705;27;20124;-56
2021/10/19 08:00:19;;;;;;;9.88;4.25;;;20.70;52.10;;;;;;5133717;27;20023;-56
2021/10/19 08:02:46;;;;;;;8.95;3.55;;;20.60;52.00;;;;;;5115258;28;20028;-56
2021/10/19 08:05:14;;;;;;;8.32;3.80;;;20.70;52.00;;;;;;5133785;27;20595;-56
2021/10/19 08:07:45;;;;;;;8.00;4.00;;;20.70;52.00;;;;;;5115253;28;20490;-56
2021/10/19 08:10:13;;;;;;;9.70;3.58;;;20.60;52.10;;;;;;5133628;28;20030;-54
2021/10/19 08:12:39;;;;;;;7.20;3.45;;;20.70;52.10;;;;;;5133608;28;20024;-57
2021/10/19 08:15:05;;;;;;;9.77;4.28;;;20.70;52.10;;;;;;5115177;28;20034;-59
2021/10/19 08:17:31;;;;;;;8.88;4.05;;;20.70;52.10;;;;;;5133608;28;20378;-56
2021/10/19 08:20:00;;;;;;;9.98;3.85;;;20.70;52.10;;;;;;5133547;28;20080;-56
2021/10/19 08:22:29;;;;;;;9.63;4.00;;;20.60;52.10;;;;;;5133230;28;20462;-58
2021/10/19 08:24:57;;;;;;;8.82;3.63;;;20.70;52.10;;;;;;5133402;28;20015;-55
2021/10/19 08:27:26;;;;;;;8.55;3.88;;;20.70;52.10;;;;;;5114824;28;20031;-56
2021/10/19 08:29:52;;;;;;;7.72;3.25;;;20.70;52.10;;;;;;5114885;28;20052;-55
2021/10/19 08:32:18;;;;;;;8.38;3.78;;;20.70;52.10;;;;;;5133295;28;20344;-58
2021/10/19 08:34:44;;;;;;;8.23;3.47;;;20.70;52.10;;;;;;5114908;28;20103;-58
2021/10/19 08:37:10;;;;;;;7.53;2.97;;;20.70;52.10;;;;;;5133248;28;20557;-56
2021/10/19 08:39:35;;;;;;;6.00;3.38;;;20.70;52.10;;;;;;5133097;28;20057;-58
2021/10/19 08:42:01;;;;;;;6.72;3.25;;;20.70;52.20;;;;;;5133291;28;20126;-55
2021/10/19 08:44:27;;;;;;;8.70;3.70;;;20.70;52.20;;;;;;5133483;28;20023;-59
2021/10/19 08:46:53;;;;;;;6.53;2.85;;;20.70;52.20;;;;;;5133424;28;20027;-58
2021/10/19 08:49:19;;;;;;;7.85;3.47;;;20.70;52.20;;;;;;5133429;28;20023;-56
2021/10/19 08:51:45;;;;;;;7.57;3.63;;;20.70;52.20;;;;;;5133284;28;20075;-56
2021/10/19 08:54:10;;;;;;;7.22;3.67;;;20.70;52.20;;;;;;5133489;28;20466;-56
2021/10/19 08:56:37;;;;;;;9.35;3.95;;;20.70;52.20;;;;;;5135236;27;20086;-53
2021/10/19 08:59:03;;;;;;;9.20;4.00;;;20.70;52.20;;;;;;5137124;27;20064;-57
2021/10/19 09:01:34;;;;;;;7.85;3.30;;;20.70;52.20;;;;;;5137062;27;20115;-56
2021/10/19 09:04:00;;;;;;;9.30;3.63;;;20.70;52.20;;;;;;5137158;27;20492;-55
2021/10/19 09:06:33;;;;;;;9.00;3.58;;;20.70;52.20;;;;;;5137383;27;20019;-55
2021/10/19 09:09:07;;;;;;;9.43;3.85;;;20.70;52.20;;;;;;5137277;27;20030;-57
2021/10/19 09:11:41;;;;;;;9.00;3.80;;;20.70;52.20;;;;;;5136998;27;20136;-61
2021/10/19 09:14:07;;;;;;;9.35;3.20;;;20.70;52.20;;;;;;5137013;27;20091;-59
2021/10/19 09:16:42;;;;;;;8.80;3.40;;;20.70;52.20;;;;;;5136839;27;20035;-55
2021/10/19 09:19:08;;;;;;;7.78;3.55;;;20.70;52.20;;;;;;5136797;27;20023;-54
2021/10/19 09:21:34;;;;;;;8.20;3.25;;;20.70;52.20;;;;;;5136477;27;20503;-56
2021/10/19 09:24:27;;;;;;;6.72;2.90;;;20.80;52.20;;;;;;5136729;27;20058;-51
2021/10/19 09:27:01;;;;;;;7.13;2.70;;;20.70;52.30;;;;;;5136756;27;20075;-57
2021/10/19 09:29:30;;;;;;;6.28;3.05;;;20.70;52.30;;;;;;5136616;27;20038;-56
2021/10/19 09:31:59;;;;;;;8.90;3.90;;;20.80;52.30;;;;;;5136809;27;20084;-57
2021/10/19 09:34:31;;;;;;;8.27;3.72;;;20.70;52.30;;;;;;5136759;27;20027;-59
2021/10/19 09:36:57;;;;;;;7.97;3.33;;;20.70;52.30;;;;;;5136568;27;20023;-56
2021/10/19 09:39:36;;;;;;;7.40;2.95;;;20.70;52.30;;;;;;5136234;27;20043;-54
2021/10/19 09:42:04;;;;;;;7.75;3.85;;;20.80;52.30;;;;;;5136200;27;20148;-56
2021/10/19 09:44:29;;;;;;;9.18;3.85;;;20.70;52.30;;;;;;5136308;27;20479;-56
2021/10/19 09:46:55;;;;;;;6.65;2.78;;;20.80;52.30;;;;;;5136025;27;20027;-57
2021/10/19 09:49:22;;;;;;;7.10;3.20;;;20.70;52.30;;;;;;5136381;27;20034;-56
2021/10/19 09:51:48;;;;;;;8.95;3.80;;;20.80;52.40;;;;;;5136227;27;20019;-58
2021/10/19 09:54:21;;;;;;;8.30;3.47;;;20.70;52.40;;;;;;5136089;27;20102;-56
2021/10/19 09:56:47;;;;;;;7.82;3.40;;;20.70;52.40;;;;;;5136078;27;20016;-57
2021/10/19 09:59:15;;;;;;;7.93;3.55;;;20.70;52.40;;;;;;5135900;27;20478;-56
2021/10/19 10:01:41;;;;;;;7.85;3.17;;;20.80;52.40;;;;;;5135813;27;20077;-55
2021/10/19 10:04:07;;;;;;;6.88;3.10;;;20.70;52.40;;;;;;5136129;27;20420;-56
2021/10/19 10:06:34;;;;;;;8.40;3.13;;;20.70;52.40;;;;;;5135961;27;20072;-56
2021/10/19 10:09:01;;;;;;;8.77;3.70;;;20.80;52.50;;;;;;5134963;27;20066;-58
2021/10/19 10:11:27;;;;;;;8.20;3.67;;;20.70;52.40;;;;;;5135833;27;20019;-56
2021/10/19 10:14:03;;;;;;;7.70;3.30;;;20.80;52.40;;;;;;5135965;27;20023;-56
2021/10/19 10:16:29;;;;;;;7.15;3.00;;;20.80;52.40;;;;;;5135779;27;20019;-58
2021/10/19 10:18:56;;;;;;;7.22;3.03;;;20.70;52.50;;;;;;5135662;27;20038;-56
2021/10/19 10:21:24;;;;;;;7.45;2.78;;;20.80;52.40;;;;;;5135317;27;20475;-57
2021/10/19 10:24:01;;;;;;;6.88;3.15;;;20.80;52.50;;;;;;5135539;27;20023;-58
2021/10/19 10:26:30;;;;;;;6.45;3.03;;;20.80;52.50;;;;;;5135372;27;20476;-59
2021/10/19 10:29:13;;;;;;;8.18;2.70;;;20.80;52.50;;;;;;5135484;27;20077;-56
2021/10/19 10:31:50;;;;;;;6.32;3.03;;;20.80;52.50;;;;;;5135321;27;20019;-59
2021/10/19 10:34:15;;;;;;;9.60;3.10;;;20.80;52.50;;;;;;5135361;27;20019;-57
2021/10/19 10:36:46;;;;;;;7.03;3.20;;;20.80;52.60;;;;;;5135524;27;20027;-59
2021/10/19 10:39:12;;;;;;;6.53;2.67;;;20.70;52.50;;;;;;5135132;27;20078;-58
2021/10/19 10:41:43;;;;;;;6.75;2.92;;;20.70;52.60;;;;;;5135215;27;20062;-56
2021/10/19 10:44:10;;;;;;;7.13;2.47;;;20.80;52.50;;;;;;5135162;27;20027;-58
2021/10/19 10:46:36;;;;;;;5.05;2.60;;;20.80;52.50;;;;;;5135175;27;20019;-55
2021/10/19 10:49:02;;;;;;;5.93;2.60;;;20.80;52.50;;;;;;5135042;27;20599;-55
2021/10/19 10:51:31;;;;;;;6.22;2.42;;;20.80;52.60;;;;;;5135073;27;20030;-58
2021/10/19 10:53:58;;;;;;;6.72;2.70;;;20.80;52.60;;;;;;5134965;27;20026;-57
2021/10/19 10:56:24;;;;;;;5.50;2.25;;;20.80;52.60;;;;;;5135202;27;20016;-58
2021/10/19 10:58:51;;;;;;;6.05;2.50;;;20.80;52.60;;;;;;5134706;27;20082;-56
2021/10/19 11:01:18;;;;;;;7.28;2.75;;;20.80;52.60;;;;;;5134753;27;20046;-56
2021/10/19 11:03:45;;;;;;;5.55;2.50;;;20.80;52.60;;;;;;5134865;27;20386;-60
2021/10/19 11:06:14;;;;;;;6.70;2.60;;;20.80;52.60;;;;;;5116302;27;20034;-57
2021/10/19 11:08:40;;;;;;;6.53;2.53;;;20.80;52.60;;;;;;5134640;27;20054;-58
2021/10/19 11:11:09;;;;;;;6.75;2.85;;;20.80;52.60;;;;;;5134603;27;20031;-58
2021/10/19 11:14:04;;;;;;;7.45;2.47;;;20.80;52.60;;;;;;5134947;27;20023;-56
2021/10/19 11:16:35;;;;;;;5.30;2.25;;;20.80;52.60;;;;;;5112299;27;20110;-56
2021/10/19 11:19:04;;;;;;;5.85;2.35;;;20.80;52.70;;;;;;5134506;27;20019;-58
2021/10/19 11:21:31;;;;;;;6.50;2.95;;;20.80;52.70;;;;;;5134349;27;20598;-56
2021/10/19 11:23:57;;;;;;;6.82;2.50;;;20.90;52.70;;;;;;5134384;27;20023;-55
2021/10/19 11:26:23;;;;;;;5.95;2.92;;;20.90;52.70;;;;;;5134522;27;20102;-55
2021/10/19 11:28:48;;;;;;;6.30;2.95;;;20.80;52.70;;;;;;5134273;27;20486;-55
2021/10/19 11:31:15;;;;;;;6.50;2.53;;;20.80;52.70;;;;;;5134271;27;20027;-56
2021/10/19 11:33:45;;;;;;;7.20;2.50;;;20.80;52.70;;;;;;5134205;27;20466;-56
2021/10/19 11:36:13;;;;;;;6.45;2.95;;;20.80;52.70;;;;;;5134219;27;20027;-56
2021/10/19 11:38:50;;;;;;;6.05;2.42;;;20.80;52.70;;;;;;5134151;27;20494;-56
2021/10/19 11:41:19;;;;;;;7.10;2.65;;;20.80;52.70;;;;;;5134175;27;20031;-57
2021/10/19 11:43:47;;;;;;;6.38;2.55;;;20.80;52.70;;;;;;5115593;27;20050;-57
2021/10/19 11:46:18;;;;;;;8.45;3.40;;;20.80;52.70;;;;;;5134115;27;20026;-56
2021/10/19 11:48:46;;;;;;;6.20;2.75;;;20.90;52.70;;;;;;5133970;27;20027;-57
2021/10/19 11:51:13;;;;;;;5.88;2.60;;;20.80;52.80;;;;;;5133990;27;20023;-56
2021/10/19 11:53:41;;;;;;;6.47;2.58;;;20.90;52.70;;;;;;5134442;27;20030;-55
2021/10/19 11:56:09;;;;;;;5.72;2.50;;;20.80;52.80;;;;;;5134048;27;20038;-55
2021/10/19 11:58:35;;;;;;;6.38;2.53;;;20.80;52.80;;;;;;5133825;27;20027;-57
2021/10/19 12:01:01;;;;;;;6.10;2.30;;;20.80;52.80;;;;;;5133736;27;20165;-56
2021/10/19 12:03:31;;;;;;;5.65;2.60;;;20.90;52.70;;;;;;5133460;27;20031;-56
2021/10/19 12:05:57;;;;;;;6.63;2.50;;;20.80;52.80;;;;;;5133750;27;20019;-55
2021/10/19 12:08:32;;;;;;;5.22;2.17;;;20.90;52.80;;;;;;5134165;27;20038;-54
2021/10/19 12:11:08;;;;;;;5.90;2.33;;;20.90;52.80;;;;;;5134347;28;20103;-54
2021/10/19 12:13:33;;;;;;;6.05;2.60;;;20.80;52.90;;;;;;5133802;28;20046;-56
2021/10/19 12:15:59;;;;;;;6.57;2.55;;;20.90;52.80;;;;;;5133652;28;20453;-57
2021/10/19 12:18:24;;;;;;;5.47;1.92;;;20.90;52.90;;;;;;5133744;28;20034;-57
2021/10/19 12:20:50;;;;;;;5.85;2.60;;;20.80;52.80;;;;;;5133723;28;20031;-59
2021/10/19 12:23:18;;;;;;;6.35;2.58;;;20.90;52.90;;;;;;5133765;28;20042;-57
2021/10/19 12:25:46;;;;;;;5.00;2.00;;;20.80;52.90;;;;;;5133739;28;20106;-58
2021/10/19 12:28:26;;;;;;;8.45;2.40;;;20.90;52.90;;;;;;5133686;28;20027;-57
2021/10/19 12:30:53;;;;;;;6.93;2.53;;;20.90;52.90;;;;;;5116159;27;20486;-57
2021/10/19 12:33:22;;;;;;;4.70;1.98;;;20.90;52.90;;;;;;5119411;27;20023;-57
2021/10/19 12:35:53;;;;;;;6.60;2.33;;;20.90;52.90;;;;;;5137845;27;20065;-57
2021/10/19 12:38:19;;;;;;;5.72;1.98;;;20.80;52.90;;;;;;5137645;27;20478;-57